createdAt,value
2019-06-20T00:00:59.503Z,70.80
2019-06-20T00:03:28.735Z,71.00
2019-06-20T00:05:57.992Z,71.00
2019-06-20T00:08:27.249Z,71.10
2019-06-20T00:10:56.399Z,71.10
2019-06-20T00:13:25.603Z,71.10
2019-06-20T00:15:54.881Z,71.30
2019-06-20T00:18:24.109Z,71.30
2019-06-20T00:20:53.368Z,71.50
2019-06-20T00:23:22.514Z,71.60
2019-06-20T00:25:51.743Z,71.60
2019-06-20T00:28:21.422Z,71.80
2019-06-20T00:30:50.586Z,71.90
2019-06-20T00:33:19.826Z,73.20
2019-06-20T00:35:49.095Z,74.70
2019-06-20T00:38:18.325Z,76.70
2019-06-20T00:40:47.518Z,78.70
2019-06-20T00:43:18.388Z,81.00
2019-06-20T00:45:47.715Z,83.40
2019-06-20T00:48:16.966Z,84.10
2019-06-20T00:50:46.484Z,84.10
2019-06-20T00:53:15.671Z,84.70
2019-06-20T00:55:44.971Z,84.50
2019-06-20T00:58:14.249Z,84.80
2019-06-20T01:00:43.565Z,85.70
2019-06-20T01:03:12.963Z,84.20
2019-06-20T01:05:42.237Z,83.20
2019-06-20T01:08:11.510Z,83.00
2019-06-20T01:10:40.675Z,84.50
2019-06-20T01:13:10.412Z,86.20
2019-06-20T01:15:39.623Z,84.10
2019-06-20T01:18:09.163Z,83.30
2019-06-20T01:20:38.927Z,81.40
2019-06-20T01:23:08.179Z,80.90
2019-06-20T01:25:39.429Z,79.70
2019-06-20T01:28:08.735Z,79.40
2019-06-20T01:30:38.185Z,79.90
2019-06-20T01:33:07.439Z,80.40
2019-06-20T01:35:36.722Z,80.80
2019-06-20T01:38:06.002Z,81.30
2019-06-20T01:40:35.176Z,82.20
2019-06-20T01:43:04.602Z,82.90
2019-06-20T01:45:33.890Z,83.50
2019-06-20T01:48:03.104Z,84.30
2019-06-20T01:50:34.456Z,84.80
2019-06-20T01:53:03.940Z,85.50
2019-06-20T01:55:33.210Z,86.00
2019-06-20T01:58:02.542Z,86.30
2019-06-20T02:00:43.149Z,86.80
2019-06-20T02:03:12.770Z,87.40
2019-06-20T02:05:42.049Z,87.80
2019-06-20T02:08:11.438Z,88.10
2019-06-20T02:10:40.896Z,88.70
2019-06-20T02:13:10.136Z,88.90
2019-06-20T02:15:39.393Z,89.10
2019-06-20T02:18:08.707Z,89.40
2019-06-20T02:20:39.684Z,89.50
2019-06-20T02:23:09.000Z,89.90
2019-06-20T02:25:38.336Z,90.00
2019-06-20T02:28:07.520Z,90.10
2019-06-20T02:30:36.804Z,90.20
2019-06-20T02:33:06.012Z,90.30
2019-06-20T02:35:35.258Z,90.40
2019-06-20T02:38:04.424Z,90.90
2019-06-20T02:40:33.748Z,90.60
2019-06-20T02:43:03.087Z,90.70
2019-06-20T02:45:32.399Z,90.70
2019-06-20T02:48:01.675Z,90.90
2019-06-20T02:50:31.043Z,91.10
2019-06-20T02:53:00.280Z,91.20
2019-06-20T02:55:31.337Z,91.40
2019-06-20T02:58:00.564Z,91.50
2019-06-20T03:00:38.623Z,91.60
2019-06-20T03:03:07.939Z,91.70
2019-06-20T03:05:37.117Z,91.90
2019-06-20T03:08:06.513Z,92.10
2019-06-20T03:10:35.786Z,92.30
2019-06-20T03:13:05.300Z,92.50
2019-06-20T03:15:34.674Z,92.60
2019-06-20T03:18:04.076Z,92.70
2019-06-20T03:20:33.321Z,92.80
2019-06-20T03:23:02.608Z,92.90
2019-06-20T03:25:31.841Z,93.10
2019-06-20T03:28:01.103Z,93.30
2019-06-20T03:30:30.437Z,93.40
2019-06-20T03:32:59.640Z,93.50
2019-06-20T03:35:28.801Z,93.60
2019-06-20T03:37:58.107Z,94.10
2019-06-20T03:40:27.413Z,93.90
2019-06-20T03:42:56.606Z,94.00
2019-06-20T03:45:25.995Z,94.00
2019-06-20T03:47:55.445Z,94.00
2019-06-20T03:50:24.784Z,94.00
2019-06-20T03:53:03.174Z,94.00
2019-06-20T03:55:33.678Z,94.20
2019-06-20T03:58:04.249Z,94.50
2019-06-20T04:00:34.995Z,94.60
2019-06-20T04:03:05.708Z,94.70
2019-06-20T04:05:35.556Z,94.60
2019-06-20T04:08:04.862Z,94.80
2019-06-20T04:10:34.531Z,94.50
2019-06-20T04:13:03.811Z,94.50
2019-06-20T04:15:33.390Z,94.50
2019-06-20T04:18:02.654Z,94.50
2019-06-20T04:20:31.948Z,94.70
2019-06-20T04:23:01.755Z,95.00
2019-06-20T04:25:31.313Z,94.50
2019-06-20T04:28:00.949Z,94.30
2019-06-20T04:30:30.296Z,94.30
2019-06-20T04:32:59.689Z,94.30
2019-06-20T04:35:29.014Z,94.40
2019-06-20T04:37:58.306Z,94.60
2019-06-20T04:40:27.518Z,94.60
2019-06-20T04:42:56.684Z,94.60
2019-06-20T04:45:40.875Z,94.90
2019-06-20T04:48:10.201Z,94.70
2019-06-20T04:50:39.364Z,94.60
2019-06-20T04:53:08.786Z,94.60
2019-06-20T04:55:37.994Z,94.50
2019-06-20T04:58:07.287Z,94.50
2019-06-20T05:00:36.763Z,94.40
2019-06-20T05:03:06.034Z,94.40
2019-06-20T05:05:35.215Z,94.30
2019-06-20T05:08:04.653Z,94.30
2019-06-20T05:10:33.893Z,94.10
2019-06-20T05:13:03.473Z,93.90
2019-06-20T05:15:32.727Z,93.60
2019-06-20T05:18:01.880Z,93.20
2019-06-20T05:20:31.075Z,92.70
2019-06-20T05:23:00.397Z,92.60
2019-06-20T05:25:29.822Z,92.90
2019-06-20T05:27:59.153Z,92.70
2019-06-20T05:30:29.128Z,92.40
2019-06-20T05:32:58.887Z,92.50
2019-06-20T05:35:28.200Z,92.30
2019-06-20T05:37:57.442Z,92.50
2019-06-20T05:40:27.878Z,92.70
2019-06-20T05:42:57.062Z,92.80
2019-06-20T05:45:26.966Z,92.90
2019-06-20T05:47:56.155Z,92.80
2019-06-20T05:50:25.691Z,92.90
2019-06-20T05:52:55.025Z,92.90
2019-06-20T05:55:24.322Z,92.50
2019-06-20T05:57:53.598Z,92.10
2019-06-20T06:00:23.614Z,92.10
2019-06-20T06:02:53.410Z,92.20
2019-06-20T06:05:23.041Z,92.30
2019-06-20T06:07:52.333Z,92.50
2019-06-20T06:10:22.161Z,92.80
2019-06-20T06:12:52.503Z,92.80
2019-06-20T06:15:22.154Z,93.00
2019-06-20T06:17:52.356Z,93.10
2019-06-20T06:20:21.628Z,92.90
2019-06-20T06:22:51.022Z,92.90
2019-06-20T06:25:20.459Z,92.80
2019-06-20T06:27:49.698Z,92.90
2019-06-20T06:30:19.395Z,92.90
2019-06-20T06:32:48.815Z,93.00
2019-06-20T06:35:18.314Z,93.00
2019-06-20T06:37:47.559Z,93.60
2019-06-20T06:40:17.184Z,94.00
2019-06-20T06:42:46.501Z,94.60
2019-06-20T06:45:17.038Z,95.90
2019-06-20T06:47:46.364Z,97.00
2019-06-20T06:50:15.923Z,97.80
2019-06-20T06:52:45.166Z,98.50
2019-06-20T06:55:14.766Z,98.00
2019-06-20T06:57:44.087Z,98.40
2019-06-20T07:00:13.778Z,98.70
2019-06-20T07:02:42.961Z,98.60
2019-06-20T07:05:13.643Z,99.30
2019-06-20T07:07:42.959Z,98.60
2019-06-20T07:10:12.524Z,98.10
2019-06-20T07:12:41.908Z,98.60
2019-06-20T07:15:11.271Z,98.70
2019-06-20T07:17:40.627Z,98.60
2019-06-20T07:20:10.434Z,99.00
2019-06-20T07:22:39.799Z,99.10
2019-06-20T07:25:09.542Z,99.00
2019-06-20T07:27:39.108Z,99.10
2019-06-20T07:30:09.341Z,98.60
2019-06-20T07:32:38.676Z,98.60
2019-06-20T07:35:08.387Z,98.50
2019-06-20T07:37:37.626Z,98.50
2019-06-20T07:40:08.977Z,98.10
2019-06-20T07:42:38.223Z,98.00
2019-06-20T07:45:09.641Z,97.90
2019-06-20T07:47:38.987Z,97.80
2019-06-20T07:50:10.100Z,97.60
2019-06-20T07:52:39.355Z,97.60
2019-06-20T07:55:09.288Z,97.70
2019-06-20T07:57:38.580Z,97.70
2019-06-20T08:00:09.410Z,97.50
2019-06-20T08:02:39.496Z,97.80
2019-06-20T08:05:10.200Z,97.40
2019-06-20T08:07:39.791Z,97.40
2019-06-20T08:10:09.775Z,97.30
